Kezdőlap
METAR-TAF:

METAR-TAF

Repülőterek :

Algona, Iowa, Amerikai Egyesült Államok

földrajzi szélesség: 43-05N, földrajzi hosszúság: 094-16W, magasság: 372 m

Jelenlegi meteorológiai megfigyelések

A jelentés 5 órával és 49 perccel ezelõtt készült, 00:55 UTC
Keleti szél 27 kt széllökések: 38 kt
Hőmérséklet 8°C
Páratartalom 100%
Légköri nyomás 998 hPa
Látótávolság: 16.1 km
Szakadozott felhőzet 800 lábon
Szakadozott felhőzet 1300 lábon

METAR: KAXA 220055Z AUTO 09027G38KT 10SM BKN008 BKN013 08/08 A2948 RMK AO2 P0003 PWINO

Idő: 01:44 (06:44 UTC)


TAF: hiányzik

Meteorológiai megfigyelések és előrejelzések több, mint 4000 repülőtéren (METAR és TAF jelentéseket).

A térképen piros és sárga pontok jelzik az elérhető meteorológiai állomásokat.

Mozgassa az egeret a pont fölött, hogy megjelenjen az állomás neve.

Azután kattintson az időjárási megfigyelések és előrejelzések megtekintéséhez.

A térkép megváltoztatása: kattintson a fekete keresztel jelölt zöld gombra ráközelítéshez, a vonallal jelölt zöld gombra távolításhoz, vagy a zöld nyilakra a szomszédos térképek eléréséhez.


METAR-TAF: